createdAt,value
2019-02-17T00:00:41.813Z,101458.64
2019-02-17T00:03:33.387Z,101461.99
2019-02-17T00:06:23.751Z,101465.50
2019-02-17T00:09:14.749Z,101460.98
2019-02-17T00:12:04.906Z,101458.28
2019-02-17T00:14:54.227Z,101460.64
2019-02-17T00:17:44.194Z,101457.27
2019-02-17T00:20:34.025Z,101454.37
2019-02-17T00:23:24.445Z,101448.24
2019-02-17T00:26:14.651Z,101448.94
2019-02-17T00:29:04.244Z,101446.27
2019-02-17T00:31:54.351Z,101451.28
2019-02-17T00:34:45.396Z,101455.97
2019-02-17T00:37:35.397Z,101454.29
2019-02-17T00:40:25.351Z,101453.60
2019-02-17T00:43:15.388Z,101455.27
2019-02-17T00:46:05.358Z,101449.89
2019-02-17T00:48:55.138Z,101452.92
2019-02-17T00:51:45.229Z,101456.44
2019-02-17T00:54:35.117Z,101456.63
2019-02-17T00:57:24.918Z,101461.97
2019-02-17T01:00:15.304Z,101469.20
2019-02-17T01:03:05.667Z,101465.51
2019-02-17T01:05:55.491Z,101466.52
2019-02-17T01:08:45.505Z,101461.83
2019-02-17T01:11:34.990Z,101469.53
2019-02-17T01:14:25.071Z,101467.52
2019-02-17T01:17:14.998Z,101469.55
2019-02-17T01:20:05.847Z,101462.16
2019-02-17T01:22:55.499Z,101469.34
2019-02-17T01:25:45.856Z,101467.34
2019-02-17T01:28:35.928Z,101474.00
2019-02-17T01:31:25.618Z,101484.69
2019-02-17T01:34:15.718Z,101479.64
2019-02-17T01:37:06.212Z,101482.14
2019-02-17T01:39:56.343Z,101479.28
2019-02-17T01:42:46.533Z,101473.56
2019-02-17T01:45:36.358Z,101469.37
2019-02-17T01:48:26.085Z,101470.17
2019-02-17T01:51:16.733Z,101468.30
2019-02-17T01:54:06.705Z,101469.48
2019-02-17T01:56:56.757Z,101473.45
2019-02-17T01:59:46.120Z,101468.63
2019-02-17T02:02:36.224Z,101470.11
2019-02-17T02:05:26.075Z,101463.06
2019-02-17T02:08:15.727Z,101464.20
2019-02-17T02:11:06.379Z,101461.52
2019-02-17T02:13:56.389Z,101458.66
2019-02-17T02:16:46.119Z,101448.27
2019-02-17T02:19:35.978Z,101453.78
2019-02-17T02:22:25.482Z,101445.57
2019-02-17T02:25:15.432Z,101448.08
2019-02-17T02:28:05.246Z,101444.90
2019-02-17T02:30:54.635Z,101440.03
2019-02-17T02:33:47.395Z,101445.19
2019-02-17T02:36:37.402Z,101438.98
2019-02-17T02:39:27.684Z,101436.62
2019-02-17T02:42:17.940Z,101440.97
2019-02-17T02:45:09.088Z,101438.11
2019-02-17T02:47:58.822Z,101429.08
2019-02-17T02:50:48.839Z,101421.39
2019-02-17T02:53:39.009Z,101419.03
2019-02-17T02:56:28.942Z,101420.69
2019-02-17T02:59:19.087Z,101425.22
2019-02-17T03:02:08.909Z,101430.37
2019-02-17T03:04:59.093Z,101418.84
2019-02-17T03:07:49.217Z,101425.89
2019-02-17T03:10:38.851Z,101425.23
2019-02-17T03:13:28.586Z,101423.41
2019-02-17T03:16:18.451Z,101423.22
2019-02-17T03:19:08.590Z,101425.72
2019-02-17T03:21:58.371Z,101429.73
2019-02-17T03:24:48.112Z,101424.70
2019-02-17T03:27:37.860Z,101419.03
2019-02-17T03:30:27.642Z,101425.03
2019-02-17T03:33:17.875Z,101423.02
2019-02-17T03:36:08.229Z,101415.14
2019-02-17T03:38:57.972Z,101418.47
2019-02-17T03:41:48.131Z,101421.97
2019-02-17T03:44:37.992Z,101418.76
2019-02-17T03:47:28.038Z,101417.23
2019-02-17T03:50:18.134Z,101414.42
2019-02-17T03:53:08.335Z,101418.08
2019-02-17T03:55:58.116Z,101420.27
2019-02-17T03:58:47.968Z,101425.91
2019-02-17T04:01:37.682Z,101421.89
2019-02-17T04:04:27.510Z,101418.23
2019-02-17T04:07:17.407Z,101414.55
2019-02-17T04:10:08.315Z,101413.91
2019-02-17T04:12:58.484Z,101418.28
2019-02-17T04:15:49.097Z,101420.16
2019-02-17T04:18:39.910Z,101423.65
2019-02-17T04:21:29.631Z,101426.17
2019-02-17T04:24:19.682Z,101429.47
2019-02-17T04:27:09.181Z,101425.80
2019-02-17T04:29:59.301Z,101430.94
2019-02-17T04:32:49.373Z,101435.91
2019-02-17T04:35:39.157Z,101422.66
2019-02-17T04:38:29.420Z,101429.97
2019-02-17T04:41:19.783Z,101425.78
2019-02-17T04:44:10.472Z,101430.61
2019-02-17T04:47:01.467Z,101423.73
2019-02-17T04:49:50.894Z,101428.70
2019-02-17T04:52:40.466Z,101426.82
2019-02-17T04:55:30.611Z,101423.64
2019-02-17T04:58:20.644Z,101423.61
2019-02-17T05:01:10.354Z,101422.22
2019-02-17T05:04:00.295Z,101415.88
2019-02-17T05:06:50.461Z,101417.15
2019-02-17T05:09:40.325Z,101414.16
2019-02-17T05:12:30.047Z,101416.17
2019-02-17T05:15:20.039Z,101411.21
2019-02-17T05:18:10.277Z,101413.06
2019-02-17T05:21:00.332Z,101410.58
2019-02-17T05:23:50.394Z,101412.58
2019-02-17T05:26:40.481Z,101413.42
2019-02-17T05:29:30.804Z,101417.23
2019-02-17T05:32:20.712Z,101414.56
2019-02-17T05:35:10.820Z,101413.39
2019-02-17T05:38:00.596Z,101413.20
2019-02-17T05:40:50.394Z,101412.36
2019-02-17T05:43:40.378Z,101412.16
2019-02-17T05:46:32.064Z,101414.84
2019-02-17T05:49:21.905Z,101415.48
2019-02-17T05:52:11.797Z,101421.52
2019-02-17T05:55:01.450Z,101429.87
2019-02-17T05:57:51.325Z,101430.50
2019-02-17T06:00:41.605Z,101437.34
2019-02-17T06:03:31.545Z,101437.14
2019-02-17T06:06:21.391Z,101436.46
2019-02-17T06:09:11.434Z,101448.97
2019-02-17T06:12:01.020Z,101439.95
2019-02-17T06:14:51.066Z,101441.77
2019-02-17T06:17:40.893Z,101440.44
2019-02-17T06:20:30.835Z,101438.09
2019-02-17T06:23:20.942Z,101441.09
2019-02-17T06:26:11.869Z,101447.44
2019-02-17T06:29:01.628Z,101447.11
2019-02-17T06:31:51.367Z,101455.12
2019-02-17T06:34:41.262Z,101455.12
2019-02-17T06:37:31.384Z,101457.43
2019-02-17T06:40:21.011Z,101459.12
2019-02-17T06:43:11.217Z,101457.63
2019-02-17T06:46:01.436Z,101460.16
2019-02-17T06:48:51.384Z,101460.03
2019-02-17T06:51:41.229Z,101454.91
2019-02-17T06:54:31.671Z,101457.48
2019-02-17T06:57:29.212Z,101457.05
2019-02-17T07:00:31.943Z,101451.58
2019-02-17T07:03:21.641Z,101454.95
2019-02-17T07:06:16.247Z,101454.27
2019-02-17T07:09:07.420Z,101446.69
2019-02-17T07:11:57.540Z,101449.14
2019-02-17T07:14:47.066Z,101449.20
2019-02-17T07:17:37.169Z,101446.25
2019-02-17T07:20:27.468Z,101441.90
2019-02-17T07:23:17.423Z,101441.02
2019-02-17T07:26:07.303Z,101443.82
2019-02-17T07:28:57.330Z,101432.58
2019-02-17T07:31:47.388Z,101428.80
2019-02-17T07:34:37.183Z,101430.91
2019-02-17T07:37:33.402Z,101437.05
2019-02-17T07:40:18.233Z,101427.84
2019-02-17T07:43:08.299Z,101433.23
2019-02-17T07:45:58.187Z,101435.90
2019-02-17T07:48:48.408Z,101434.25
2019-02-17T07:51:38.121Z,101426.95
2019-02-17T07:54:28.217Z,101436.50
2019-02-17T07:57:18.823Z,101434.89
2019-02-17T08:00:09.128Z,101428.12
2019-02-17T08:02:58.891Z,101420.59
2019-02-17T08:05:48.406Z,101420.31
2019-02-17T08:08:38.032Z,101421.39
2019-02-17T08:11:28.530Z,101427.13
2019-02-17T08:14:18.417Z,101424.86
2019-02-17T08:17:08.218Z,101418.38
2019-02-17T08:19:58.001Z,101424.60
2019-02-17T08:22:48.058Z,101426.25
2019-02-17T08:25:37.933Z,101427.75
2019-02-17T08:28:27.969Z,101431.26
2019-02-17T08:31:17.832Z,101423.63
2019-02-17T08:34:08.202Z,101423.08
2019-02-17T08:36:58.095Z,101418.67
2019-02-17T08:39:47.188Z,101415.48
2019-02-17T08:42:37.029Z,101412.41
2019-02-17T08:45:27.090Z,101405.49
2019-02-17T08:48:17.092Z,101398.98
2019-02-17T08:51:07.089Z,101397.34
2019-02-17T08:53:57.079Z,101398.83
2019-02-17T08:56:47.098Z,101398.48
2019-02-17T08:59:36.926Z,101396.73
2019-02-17T09:02:25.956Z,101393.11
2019-02-17T09:05:15.676Z,101396.61
2019-02-17T09:08:05.783Z,101389.98
2019-02-17T09:10:55.667Z,101388.13
2019-02-17T09:13:48.308Z,101391.70
2019-02-17T09:16:37.900Z,101392.08
2019-02-17T09:19:27.647Z,101389.68
2019-02-17T09:22:18.122Z,101382.80
2019-02-17T09:25:10.103Z,101384.03
2019-02-17T09:27:59.660Z,101378.95
2019-02-17T09:30:49.330Z,101375.39
2019-02-17T09:33:39.349Z,101369.18
2019-02-17T09:36:28.810Z,101371.52
2019-02-17T09:39:18.586Z,101362.77
2019-02-17T09:42:08.713Z,101362.19
2019-02-17T09:44:59.373Z,101353.17
2019-02-17T09:47:49.732Z,101348.75
2019-02-17T09:50:39.701Z,101351.98
2019-02-17T09:53:29.481Z,101360.09
2019-02-17T09:56:19.311Z,101346.61
2019-02-17T09:59:09.249Z,101349.11
2019-02-17T10:01:59.279Z,101343.19
2019-02-17T10:04:49.073Z,101339.59
2019-02-17T10:07:38.960Z,101332.48
2019-02-17T10:10:29.188Z,101326.78
2019-02-17T10:13:19.255Z,101321.85
2019-02-17T10:16:08.919Z,101321.41
2019-02-17T10:18:58.565Z,101323.27
2019-02-17T10:21:48.306Z,101324.92
2019-02-17T10:24:37.901Z,101322.19
2019-02-17T10:27:27.637Z,101326.84
2019-02-17T10:30:18.275Z,101322.17
2019-02-17T10:33:09.379Z,101321.63
2019-02-17T10:35:59.618Z,101318.87
2019-02-17T10:38:49.473Z,101311.14
2019-02-17T10:41:39.273Z,101311.93
2019-02-17T10:44:28.828Z,101311.94
2019-02-17T10:47:18.399Z,101303.15
2019-02-17T10:50:10.226Z,101300.69
2019-02-17T10:53:00.127Z,101292.50
2019-02-17T10:55:50.211Z,101290.80
2019-02-17T10:58:40.401Z,101290.97
2019-02-17T11:01:30.645Z,101285.53
2019-02-17T11:04:20.391Z,101275.58
2019-02-17T11:07:10.319Z,101273.15
2019-02-17T11:10:00.288Z,101270.10
2019-02-17T11:12:49.774Z,101266.36
2019-02-17T11:15:39.880Z,101254.53
2019-02-17T11:18:29.964Z,101259.80
2019-02-17T11:21:19.979Z,101256.72
2019-02-17T11:24:09.930Z,101255.27
2019-02-17T11:26:59.675Z,101245.56
2019-02-17T11:29:49.488Z,101229.55
2019-02-17T11:32:38.974Z,101240.75
2019-02-17T11:35:29.889Z,101230.21
2019-02-17T11:38:20.380Z,101221.84
2019-02-17T11:41:12.528Z,101226.75
2019-02-17T11:44:01.891Z,101221.75
2019-02-17T11:46:52.055Z,101219.30
2019-02-17T11:49:41.824Z,101209.91
2019-02-17T11:52:31.497Z,101213.61
2019-02-17T11:55:22.776Z,101206.05
2019-02-17T11:58:12.802Z,101209.61
2019-02-17T12:01:05.167Z,101202.73
2019-02-17T12:03:53.934Z,101196.98
2019-02-17T12:06:43.768Z,101197.31
2019-02-17T12:09:33.705Z,101190.73
2019-02-17T12:12:23.794Z,101186.19
2019-02-17T12:15:14.524Z,101184.38
2019-02-17T12:18:04.643Z,101176.78
2019-02-17T12:21:03.825Z,101179.10
2019-02-17T12:24:17.848Z,101168.81
2019-02-17T12:27:28.108Z,101167.64
2019-02-17T12:30:21.666Z,101165.93
2019-02-17T12:33:19.147Z,101161.99
2019-02-17T12:36:03.313Z,101168.16
2019-02-17T12:38:52.979Z,101162.70
2019-02-17T12:41:42.895Z,101154.05
2019-02-17T12:44:32.452Z,101148.11
2019-02-17T12:47:22.371Z,101148.35
2019-02-17T12:50:13.584Z,101146.58
2019-02-17T12:53:04.773Z,101143.84
2019-02-17T12:55:54.935Z,101140.98
2019-02-17T12:58:45.244Z,101146.38
2019-02-17T13:01:35.078Z,101136.78
2019-02-17T13:04:24.814Z,101137.28
2019-02-17T13:07:14.784Z,101140.06
2019-02-17T13:10:05.128Z,101132.03
2019-02-17T13:12:54.778Z,101133.84
2019-02-17T13:15:44.854Z,101136.86
2019-02-17T13:18:34.841Z,101134.69
2019-02-17T13:21:25.102Z,101133.83
2019-02-17T13:24:14.997Z,101131.38
2019-02-17T13:27:05.036Z,101129.52
2019-02-17T13:29:55.758Z,101128.20
2019-02-17T13:32:45.661Z,101120.51
2019-02-17T13:35:35.452Z,101125.34
2019-02-17T13:38:25.569Z,101127.17
2019-02-17T13:41:15.370Z,101131.42
2019-02-17T13:44:05.545Z,101129.00
2019-02-17T13:46:55.079Z,101127.36
2019-02-17T13:49:45.203Z,101122.67
2019-02-17T13:52:35.065Z,101122.34
2019-02-17T13:55:24.775Z,101118.44
2019-02-17T13:58:14.750Z,101118.72
2019-02-17T14:01:04.598Z,101112.94
2019-02-17T14:03:54.356Z,101107.77
2019-02-17T14:06:44.186Z,101103.69
2019-02-17T14:09:34.533Z,101102.05
2019-02-17T14:12:27.224Z,101108.70
2019-02-17T14:15:17.506Z,101103.52
2019-02-17T14:18:07.261Z,101097.81
2019-02-17T14:20:57.454Z,101092.09
2019-02-17T14:23:47.437Z,101088.82
2019-02-17T14:26:37.280Z,101089.92
2019-02-17T14:29:27.015Z,101086.68
2019-02-17T14:32:17.078Z,101083.36
2019-02-17T14:35:06.565Z,101082.83
2019-02-17T14:37:56.620Z,101076.25
2019-02-17T14:40:46.436Z,101079.00
2019-02-17T14:43:35.752Z,101070.23
2019-02-17T14:46:25.407Z,101065.82
2019-02-17T14:49:15.149Z,101065.86
2019-02-17T14:52:04.975Z,101063.40
2019-02-17T14:54:55.013Z,101058.98
2019-02-17T14:57:44.738Z,101055.98
2019-02-17T15:00:34.744Z,101058.19
2019-02-17T15:03:24.656Z,101054.61
2019-02-17T15:06:14.635Z,101052.39
2019-02-17T15:09:07.089Z,101044.44
2019-02-17T15:11:57.753Z,101044.44
2019-02-17T15:14:48.032Z,101044.43
2019-02-17T15:17:37.788Z,101040.59
2019-02-17T15:20:27.574Z,101044.41
2019-02-17T15:23:17.124Z,101042.50
2019-02-17T15:26:07.291Z,101036.45
2019-02-17T15:28:57.329Z,101043.83
2019-02-17T15:31:47.214Z,101035.33
2019-02-17T15:34:36.714Z,101030.10
2019-02-17T15:37:26.793Z,101028.16
2019-02-17T15:40:16.002Z,101029.80
2019-02-17T15:43:06.072Z,101025.07
2019-02-17T15:45:55.900Z,101026.41
2019-02-17T15:48:45.730Z,101021.16
2019-02-17T15:51:35.923Z,101015.66
2019-02-17T15:54:25.957Z,101017.50
2019-02-17T15:57:16.033Z,101011.42
2019-02-17T16:00:08.040Z,101012.16
2019-02-17T16:02:57.930Z,100999.45
2019-02-17T16:05:48.021Z,101000.72
2019-02-17T16:08:38.192Z,101003.11
2019-02-17T16:11:28.001Z,100994.55
2019-02-17T16:14:18.178Z,100993.64
2019-02-17T16:17:08.493Z,100988.32
2019-02-17T16:19:58.509Z,100987.93
2019-02-17T16:22:48.517Z,100994.03
2019-02-17T16:25:38.389Z,100985.72
2019-02-17T16:28:28.421Z,100990.98
2019-02-17T16:31:18.104Z,100996.75
2019-02-17T16:34:08.140Z,100997.87
2019-02-17T16:36:57.860Z,100997.34
2019-02-17T16:39:47.194Z,100997.34
2019-02-17T16:42:36.820Z,101004.44
2019-02-17T16:45:26.077Z,100999.73
2019-02-17T16:48:16.069Z,101000.81
2019-02-17T16:51:07.024Z,101031.83
2019-02-17T16:53:57.440Z,101014.61
2019-02-17T16:56:47.482Z,101016.70
2019-02-17T16:59:37.331Z,101016.95
2019-02-17T17:02:27.427Z,101013.91
2019-02-17T17:05:16.969Z,101019.83
2019-02-17T17:08:07.025Z,101014.29
2019-02-17T17:10:56.401Z,101013.32
2019-02-17T17:13:46.208Z,101023.34
2019-02-17T17:16:35.684Z,101018.08
2019-02-17T17:19:25.746Z,101016.93
2019-02-17T17:22:15.030Z,101022.14
2019-02-17T17:25:05.741Z,101021.34
2019-02-17T17:27:55.216Z,101021.98
2019-02-17T17:30:44.821Z,101015.69
2019-02-17T17:33:34.550Z,101011.66
2019-02-17T17:36:24.013Z,101024.22
2019-02-17T17:39:13.996Z,101017.14
2019-02-17T17:42:03.919Z,101021.91
2019-02-17T17:44:54.373Z,101010.47
2019-02-17T17:47:43.973Z,101024.73
2019-02-17T17:50:33.974Z,101012.98
2019-02-17T17:53:24.092Z,101018.82
2019-02-17T17:56:13.759Z,101019.27
2019-02-17T17:59:03.533Z,101016.98
2019-02-17T18:01:52.897Z,101023.44
2019-02-17T18:04:42.923Z,101021.70
2019-02-17T18:07:32.629Z,101027.11
2019-02-17T18:10:22.508Z,101032.39
2019-02-17T18:13:12.536Z,101035.08
2019-02-17T18:16:02.598Z,101032.25
2019-02-17T18:18:52.615Z,101031.90
2019-02-17T18:21:41.991Z,101038.25
2019-02-17T18:24:43.692Z,101039.47
2019-02-17T18:27:33.637Z,101038.30
2019-02-17T18:30:23.715Z,101031.08
2019-02-17T18:33:14.006Z,101030.50
2019-02-17T18:36:03.665Z,101038.33
2019-02-17T18:38:54.114Z,101034.83
2019-02-17T18:41:43.682Z,101039.43
2019-02-17T18:44:33.716Z,101048.19
2019-02-17T18:47:23.340Z,101040.94
2019-02-17T18:50:14.100Z,101038.55
2019-02-17T18:53:03.288Z,101039.84
2019-02-17T18:55:53.065Z,101033.30
2019-02-17T18:58:42.285Z,101032.79
2019-02-17T19:01:32.106Z,101035.19
2019-02-17T19:04:21.805Z,101026.48
2019-02-17T19:07:11.692Z,101025.48
2019-02-17T19:10:01.617Z,101025.88
2019-02-17T19:12:51.472Z,101023.48
2019-02-17T19:15:41.147Z,101023.39
2019-02-17T19:18:31.161Z,101027.27
2019-02-17T19:21:20.945Z,101025.08
2019-02-17T19:24:11.050Z,101030.67
2019-02-17T19:27:00.898Z,101020.94
2019-02-17T19:29:50.735Z,101019.56
2019-02-17T19:32:40.646Z,101015.23
2019-02-17T19:35:30.623Z,101017.92
2019-02-17T19:38:20.209Z,101013.66
2019-02-17T19:41:09.938Z,101015.95
2019-02-17T19:43:59.756Z,101010.55
2019-02-17T19:46:49.707Z,101017.19
2019-02-17T19:49:39.723Z,101014.48
2019-02-17T19:52:29.964Z,101015.09
2019-02-17T19:55:19.700Z,101021.24
2019-02-17T19:58:08.995Z,101017.68
2019-02-17T20:00:58.282Z,101017.55
2019-02-17T20:04:18.413Z,101018.46
2019-02-17T20:07:07.702Z,101025.52
2019-02-17T20:09:57.537Z,101030.07
2019-02-17T20:12:47.209Z,101032.68
2019-02-17T20:15:36.883Z,101031.20
2019-02-17T20:18:26.189Z,101034.20
2019-02-17T20:21:15.606Z,101029.33
2019-02-17T20:24:07.986Z,101030.92
2019-02-17T20:26:56.973Z,101031.46
2019-02-17T20:29:47.099Z,101033.24
2019-02-17T20:32:37.331Z,101036.57
2019-02-17T20:35:27.228Z,101032.75
2019-02-17T20:38:17.277Z,101037.95
2019-02-17T20:41:07.038Z,101043.14
2019-02-17T20:43:56.812Z,101041.17
2019-02-17T20:46:47.147Z,101037.53
2019-02-17T20:49:37.235Z,101033.81
2019-02-17T20:52:27.104Z,101040.23
2019-02-17T20:55:21.665Z,101037.66
2019-02-17T20:58:11.760Z,101039.52
2019-02-17T21:01:01.834Z,101037.95
2019-02-17T21:03:51.623Z,101047.39
2019-02-17T21:06:41.917Z,101042.40
2019-02-17T21:09:32.573Z,101045.20
2019-02-17T21:12:22.657Z,101046.05
2019-02-17T21:15:13.266Z,101048.74
2019-02-17T21:18:03.366Z,101044.38
2019-02-17T21:20:53.133Z,101046.48
2019-02-17T21:23:43.057Z,101045.86
2019-02-17T21:26:32.580Z,101056.44
2019-02-17T21:29:22.442Z,101053.73
2019-02-17T21:32:12.384Z,101054.57
2019-02-17T21:35:02.471Z,101057.37
2019-02-17T21:37:52.458Z,101054.89
2019-02-17T21:40:42.519Z,101048.96
2019-02-17T21:43:32.100Z,101047.06
2019-02-17T21:46:21.852Z,101045.20
2019-02-17T21:49:11.768Z,101044.28
2019-02-17T21:52:02.351Z,101042.30
2019-02-17T21:54:52.357Z,101044.80
2019-02-17T21:57:42.550Z,101045.82
2019-02-17T22:00:32.166Z,101043.22
2019-02-17T22:03:21.688Z,101045.84
2019-02-17T22:06:11.949Z,101043.77
2019-02-17T22:09:01.439Z,101041.98
2019-02-17T22:11:53.241Z,101034.40
2019-02-17T22:14:43.347Z,101036.69
2019-02-17T22:17:34.483Z,101037.94
2019-02-17T22:20:24.520Z,101032.75
2019-02-17T22:23:14.590Z,101028.89
2019-02-17T22:26:04.319Z,101029.52
2019-02-17T22:28:54.371Z,101031.31
2019-02-17T22:31:44.265Z,101034.09
2019-02-17T22:34:33.980Z,101030.48
2019-02-17T22:37:23.738Z,101034.55
2019-02-17T22:40:13.493Z,101031.41
2019-02-17T22:43:03.117Z,101033.39
2019-02-17T22:45:53.300Z,101033.47
2019-02-17T22:48:42.891Z,101037.72
2019-02-17T22:51:32.714Z,101038.84
2019-02-17T22:54:22.808Z,101041.20
2019-02-17T22:57:12.154Z,101045.57
2019-02-17T23:00:01.836Z,101045.85
2019-02-17T23:02:53.464Z,101047.08
2019-02-17T23:05:43.899Z,101044.84
2019-02-17T23:08:33.920Z,101044.94
2019-02-17T23:11:24.077Z,101046.14
2019-02-17T23:14:14.423Z,101052.36
2019-02-17T23:17:03.970Z,101046.30
2019-02-17T23:19:54.120Z,101048.20
2019-02-17T23:22:44.215Z,101050.34
2019-02-17T23:25:34.589Z,101051.69
2019-02-17T23:28:24.637Z,101048.82
2019-02-17T23:31:16.961Z,101048.08
2019-02-17T23:34:07.012Z,101056.05
2019-02-17T23:37:04.001Z,101057.06
2019-02-17T23:39:50.524Z,101059.84
2019-02-17T23:42:40.493Z,101064.07
2019-02-17T23:45:30.314Z,101059.97
2019-02-17T23:48:20.101Z,101068.14
2019-02-17T23:51:10.178Z,101063.85
2019-02-17T23:54:00.456Z,101064.45
2019-02-17T23:56:52.358Z,101064.78
2019-02-17T23:59:42.130Z,101058.64
